High Wych Weather

NOAA Style Reports for High Wych, Hertfordshire


Report for 2012 Feb
                   Monthly Climatological Summary for Feb 2012

Name: High Wych Weather   City: High Wych, Sawbridgeworth   State: Herts
Elevation: 72 m  Lat: N 51° 48' 26"   Lon: E 000° 07' 20"

                  Temperature (°C), Rain (mm), Wind Speed (mph)

                                      Heat  Cool        Avg
    Mean                              Deg   Deg         Wind                 Dom
Day Temp  High   Time   Low    Time   Days  Days  Rain  Speed High   Time    Dir
----------------------------------------------------------------------------------
 1   0.0   4.1   00:00  -2.2   00:00   0.0   0.0   0.0  ----  16.3   00:00   ---
 2  -2.0   2.0   00:00  -4.0   00:00   0.0   0.0   0.0  ----  21.7   10:49   ---
 3  -2.0   3.1   00:00  -6.0   00:00   0.0   0.0   0.0  ----  10.3   00:00   ---
 4  -3.0   1.0   00:00  -8.0   00:00   0.0   0.0   0.0  ----  13.3   00:00   ---
 5   0.0   2.9   00:00  -2.0   00:00   0.0   0.0   0.0  ----   7.8   00:00   ---
 6   1.0   4.2   00:00   0.0   00:00   0.0   0.0   0.0  ----   7.2   00:00   ---
 7  -1.0   2.8   00:00  -6.2   00:00   0.0   0.0   0.0  ----  10.3   00:00   ---
 8  -1.0   0.4   14:29  -4.2   00:00   0.0   0.0   0.0  ----  10.3   00:00   ---
 9   0.8   2.4   00:00  -0.9   00:00   0.0   0.0   0.0  ----   9.1   00:00   ---
10  -2.2   2.6   00:00  -7.0   00:00   0.0   0.0   1.3  ----  10.3   00:00   ---
11  -5.2   2.7   00:00 -13.1   07:22   0.0   0.0   1.3  ----   6.1   00:00   ---
12  -3.2   4.4   00:00 -10.7   00:00   0.0   0.0   0.3  ----   7.2   00:00   ---
13   2.6   5.2   00:00  -0.1   00:00   0.0   0.0   0.3  ----  16.3   00:00   ---
14   5.3   7.9   00:00   2.6   00:00   0.0   0.0   0.3  ----  16.9   00:00   ---
15   8.1  10.5   00:00   5.7   00:00   0.0   0.0   0.3  ----  15.6   00:00   ---
16   8.8  12.2   00:00   5.3   00:00   0.0   0.0   0.0  ----  10.3   00:00   ---
17   9.6  13.8   00:00   5.3   00:00   0.0   0.0   0.0  ----   7.2   00:00   ---
18   6.5  11.2   00:00   1.7   00:00   0.0   0.0   1.8  ----  16.3   00:00   ---
19   2.2   8.4   00:00  -4.1   00:00   0.0   0.0   1.8  ----  13.3   00:00   ---
20   2.2   9.0   00:00  -4.6   00:00   0.0   0.0   0.0  ----  11.4   00:00   ---
21   7.3  13.5   00:00   1.1   00:00   0.0   0.0   0.0  ----  11.4   00:00   ---
22   8.8  10.1   00:00   7.4   00:00   0.0   0.0   1.0  ----  16.9   00:00   ---
23  13.4  18.2   14:59   8.6   00:00   0.0   0.0   1.0  ----  10.3   00:00   ---
24  11.4  15.9   00:00   6.9   00:00   0.0   0.0   0.0  ----  10.3   00:00   ---
25   6.4  11.8   00:00   1.0   00:00   0.0   0.0   0.0  ----   9.7   00:00   ---
26   8.2  15.9   00:00   0.4   00:00   0.0   0.0   0.0  ----   5.5   00:00   ---
27   7.6  11.3   00:00   3.9   00:00   0.0   0.0   0.0  ----   7.8   00:00   ---
28  12.1  15.1   00:00   9.1   04:44   0.0   0.0   0.0  ----   6.1   00:00   ---
29  10.9  13.4   00:00   8.5   00:00   0.0   0.0   0.0  ----   5.5   00:00   ---
----------------------------------------------------------------------------------
     3.9  18.2    23   -13.1    11     0.0   0.0   9.4  ----  21.7     2     ---

Max >=  27.0:  0
Max <=   0.0:  0
Min <=   0.0: 15
Min <=  -5.0:  6
Max Rain: 1.8 on day 18
Days of Rain: 10 (>= 0.2 mm)  0 (>= 2.0 mm)  0 (>= 15.0 mm)
Heat Base: 15.0  Cool Base: 15.0  Method: Integration
:now::gauges::console::today/yesterday::month/year::records: noaa reports::annual data::wind map::monthly records::trends::longrange forecast::rainfall radar::webcam